Tuesday, October 23, 2018, 10:50 PM EDT
Back to Local

KEZF, Fredericksburg, Shannon Airport

Location: Fredericksburg, VA, United States Lat: 38.267
Local Time: 10:50 PM EDT ( 2:50 GMT) Lon: -77.45
Time Zone: US/Eastern Elev: 85 ft

Show me the last for .
Show Decoded

2018-10-23 22:35 METAR KEZF 240235Z AUTO 32003KT 10SM CLR 10/06 A3009 RMK AO2 T00960056 =
2018-10-23 22:15 METAR KEZF 240215Z AUTO 34003KT 10SM CLR 10/06 A3008 RMK AO2 T01020063 =
2018-10-23 21:55 METAR KEZF 240155Z AUTO 34003KT 10SM CLR 10/07 A3008 RMK AO2 T01000065 =
2018-10-23 21:35 METAR KEZF 240135Z AUTO 00000KT 10SM CLR 13/04 A3007 RMK AO2 T01340042 =
2018-10-23 21:15 METAR KEZF 240115Z AUTO 35005KT 10SM CLR 14/05 A3006 RMK AO2 T01430047 =
2018-10-23 20:55 METAR KEZF 240055Z AUTO 34006KT 10SM CLR 12/08 A3005 RMK AO2 T01210081 =
2018-10-23 20:35 METAR KEZF 240035Z AUTO 35003KT 10SM CLR 12/08 A3004 RMK AO2 T01180084 =
2018-10-23 20:15 METAR KEZF 240015Z AUTO 00000KT 10SM CLR 14/08 A3004 RMK AO2 T01410082 =
2018-10-23 19:55 METAR KEZF 232355Z AUTO 33005KT 10SM SCT075 14/10 A3003 RMK AO2 T01380099 10215
                 20123 =
2018-10-23 19:35 METAR KEZF 232335Z AUTO 00000KT 10SM CLR 13/11 A3001 RMK AO2 T01250107 =
2018-10-23 19:15 METAR KEZF 232315Z AUTO 30003KT 7SM CLR 13/11 A3000 RMK AO2 T01340105 =
2018-10-23 18:55 METAR KEZF 232255Z AUTO 00000KT 10SM CLR 14/10 A2999 RMK AO2 T01370104 =
2018-10-23 18:35 METAR KEZF 232235Z AUTO 00000KT 10SM CLR 17/09 A2998 RMK AO2 T01690093 =
2018-10-23 18:15 METAR KEZF 232215Z AUTO 00000KT 10SM CLR 16/10 A2997 RMK AO2 T01620097 =
2018-10-23 17:55 METAR KEZF 232155Z AUTO 21004KT 10SM CLR 19/09 A2997 RMK AO2 T01880093 =
2018-10-23 17:35 METAR KEZF 232135Z AUTO 22003KT 10SM CLR 20/08 A2997 RMK AO2 T02010081 =
2018-10-23 17:15 METAR KEZF 232115Z AUTO 23005KT 10SM CLR 21/08 A2997 RMK AO2 T02070076 =
2018-10-23 16:55 METAR KEZF 232055Z AUTO 22007G14KT 10SM CLR 21/07 A2997 RMK AO2 T02110071 =
2018-10-23 16:35 METAR KEZF 232035Z AUTO 22007KT 10SM CLR 21/07 A2997 RMK AO2 T02120072 =
2018-10-23 16:15 METAR KEZF 232015Z AUTO 25009G16KT 10SM CLR 21/07 A2998 RMK AO2 T02120069 =
2018-10-23 15:55 METAR KEZF 231955Z AUTO 23008G21KT 10SM CLR 21/07 A2998 RMK AO2 T02130070 =
2018-10-23 15:35 METAR KEZF 231935Z AUTO 21010KT 10SM CLR 21/07 A2999 RMK AO2 T02140068 =
2018-10-23 15:15 METAR KEZF 231915Z AUTO 23008KT 10SM CLR 21/07 A2999 RMK AO2 T02120065 =
2018-10-23 14:55 METAR KEZF 231855Z AUTO 23006KT 10SM CLR 21/06 A2999 RMK AO2 T02110062 =
2018-10-23 14:35 METAR KEZF 231835Z AUTO 22011G14KT 10SM CLR 21/06 A3000 RMK AO2 T02110064 =
2018-10-23 14:15 METAR KEZF 231815Z AUTO 24005G08KT 10SM CLR 21/06 A3001 RMK AO2 T02110061 =
2018-10-23 13:55 METAR KEZF 231755Z AUTO 23011KT 210V270 10SM CLR 21/06 A3002 RMK AO2 T02090064
                 10210 20036 =
2018-10-23 13:35 METAR KEZF 231735Z AUTO 23007KT 10SM CLR 21/07 A3003 RMK AO2 T02090065 =
2018-10-23 13:15 METAR KEZF 231715Z AUTO 28007G14KT 10SM CLR 20/06 A3004 RMK AO2 T02040063 =
2018-10-23 12:55 METAR KEZF 231655Z AUTO 23009KT 10SM CLR 21/07 A3005 RMK AO2 T02060067 =
2018-10-23 12:35 METAR KEZF 231635Z AUTO 22007KT 10SM CLR 20/06 A3006 RMK AO2 T02010063 =
2018-10-23 12:15 METAR KEZF 231615Z AUTO 22008KT 10SM CLR 20/06 A3007 RMK AO2 T01990063 =
2018-10-23 11:55 METAR KEZF 231555Z AUTO 24004KT 10SM CLR 19/06 A3008 RMK AO2 T01910059 =
2018-10-23 11:35 METAR KEZF 231535Z AUTO 25007KT 10SM CLR 19/06 A3009 RMK AO2 T01860057 =
2018-10-23 11:15 METAR KEZF 231515Z AUTO 24005KT 10SM CLR 18/06 A3010 RMK AO2 T01790058 =
2018-10-23 10:55 METAR KEZF 231455Z AUTO 22003KT 10SM CLR 17/06 A3010 RMK AO2 T01700063 =
2018-10-23 10:35 METAR KEZF 231435Z AUTO 24004KT 10SM CLR 16/07 A3010 RMK AO2 T01630068 =
2018-10-23 10:15 METAR KEZF 231415Z AUTO 00000KT 10SM CLR 15/07 A3011 RMK AO2 T01450070 =
2018-10-23 09:55 METAR KEZF 231355Z AUTO 00000KT 10SM CLR 12/08 A3011 RMK AO2 T01180076 =
2018-10-23 09:35 METAR KEZF 231335Z AUTO 00000KT 10SM CLR 10/07 A3011 RMK AO2 T00990069 =
2018-10-23 09:15 METAR KEZF 231315Z AUTO 00000KT 10SM CLR 09/07 A3012 RMK AO2 T00850074 =
2018-10-23 08:55 METAR KEZF 231255Z AUTO 00000KT 10SM CLR 07/07 A3012 RMK AO2 T00680068 =
2018-10-23 08:35 METAR KEZF 231235Z AUTO 00000KT 10SM CLR 06/06 A3011 RMK AO2 T00560056 =
2018-10-23 08:15 METAR KEZF 231215Z AUTO 00000KT 10SM CLR 05/05 A3012 RMK AO2 T00450045 =
2018-10-23 07:55 METAR KEZF 231155Z AUTO 00000KT 10SM CLR 04/04 A3011 RMK AO2 T00360036 10068
                 20034 =
2018-10-23 07:35 METAR KEZF 231135Z AUTO 00000KT 10SM CLR 04/04 A3011 RMK AO2 T00350035 =
2018-10-23 07:15 METAR KEZF 231115Z AUTO 00000KT 10SM CLR 04/04 A3011 RMK AO2 T00380038 =
2018-10-23 06:55 METAR KEZF 231055Z AUTO 00000KT 10SM CLR 04/04 A3011 RMK AO2 T00370037 =
2018-10-23 06:35 METAR KEZF 231035Z AUTO 00000KT 10SM CLR 04/04 A3010 RMK AO2 T00390039 =
2018-10-23 06:15 METAR KEZF 231015Z AUTO 00000KT 10SM CLR 04/04 A3010 RMK AO2 T00400040 =
2018-10-23 05:55 METAR KEZF 230955Z AUTO 00000KT 10SM CLR 04/04 A3010 RMK AO2 T00380038 =
2018-10-23 05:35 METAR KEZF 230935Z AUTO 00000KT 10SM CLR 04/04 A3010 RMK AO2 T00420042 =
2018-10-23 05:15 METAR KEZF 230915Z AUTO 00000KT 10SM CLR 04/04 A3010 RMK AO2 T00430043 =
2018-10-23 04:55 METAR KEZF 230855Z AUTO 00000KT 10SM CLR 05/05 A3010 RMK AO2 T00470047 =
2018-10-23 04:35 METAR KEZF 230835Z AUTO 00000KT 10SM CLR 05/05 A3011 RMK AO2 T00500050 =
2018-10-23 04:15 METAR KEZF 230815Z AUTO 00000KT 10SM CLR 05/05 A3011 RMK AO2 T00490049 =
2018-10-23 03:55 METAR KEZF 230755Z AUTO 00000KT 10SM CLR 05/05 A3011 RMK AO2 T00500050 =
2018-10-23 03:35 METAR KEZF 230735Z AUTO 00000KT 10SM CLR 05/05 A3011 RMK AO2 T00500050 =
2018-10-23 03:15 METAR KEZF 230715Z AUTO 00000KT 10SM CLR 06/06 A3012 RMK AO2 T00550055 =
2018-10-23 02:55 METAR KEZF 230655Z AUTO 00000KT 10SM CLR 06/06 A3012 RMK AO2 T00560056 =
2018-10-23 02:35 METAR KEZF 230635Z AUTO 00000KT 10SM CLR 06/05 A3013 RMK AO2 T00560053 =
2018-10-23 02:15 METAR KEZF 230615Z AUTO 00000KT 10SM CLR 06/05 A3014 RMK AO2 T00630051 =
2018-10-23 01:55 METAR KEZF 230555Z AUTO 00000KT 10SM CLR 07/05 A3014 RMK AO2 T00700049 10095
                 20070 401501004 =
2018-10-23 01:35 METAR KEZF 230535Z AUTO 00000KT 10SM CLR 08/05 A3014 RMK AO2 T00750053 =
2018-10-23 01:15 METAR KEZF 230515Z AUTO 17003KT 10SM CLR 08/06 A3014 RMK AO2 T00810055 =
2018-10-23 00:55 METAR KEZF 230455Z AUTO 00000KT 10SM CLR 08/05 A3014 RMK AO2 T00800054 =
2018-10-23 00:35 METAR KEZF 230435Z AUTO 00000KT 10SM CLR 08/05 A3014 RMK AO2 T00840052 =
2018-10-23 00:15 METAR KEZF 230415Z AUTO 00000KT 10SM CLR 09/05 A3015 RMK AO2 T00880053 =
2018-10-22 23:55 METAR KEZF 230355Z AUTO 21005KT 10SM CLR 09/06 A3015 RMK AO2 T00900055 =
2018-10-22 23:35 METAR KEZF 230335Z AUTO 21006KT 10SM CLR 09/05 A3015 RMK AO2 T00900053 =
2018-10-22 23:15 METAR KEZF 230315Z AUTO 20008G14KT 10SM CLR 09/06 A3015 RMK AO2 T00930055 =
2018-10-22 22:55 METAR KEZF 230255Z AUTO 19008KT 10SM CLR 09/05 A3015 RMK AO2 T00920053 =

Support USWX by starting your Amazon purchase here.